createdAt,value
2023-03-06T00:00:14.797Z,99.90
2023-03-06T00:02:43.017Z,99.90
2023-03-06T00:05:11.276Z,99.90
2023-03-06T00:07:40.913Z,99.90
2023-03-06T00:10:10.174Z,99.90
2023-03-06T00:12:38.397Z,99.90
2023-03-06T00:15:07.884Z,99.90
2023-03-06T00:17:36.518Z,99.90
2023-03-06T00:20:05.047Z,99.90
2023-03-06T00:22:33.305Z,99.90
2023-03-06T00:25:03.031Z,99.90
2023-03-06T00:27:32.221Z,99.90
2023-03-06T00:30:00.965Z,99.90
2023-03-06T00:32:29.358Z,99.90
2023-03-06T00:34:57.684Z,99.90
2023-03-06T00:37:26.116Z,99.90
2023-03-06T00:39:54.425Z,99.90
2023-03-06T00:42:24.060Z,99.90
2023-03-06T00:44:52.432Z,99.90
2023-03-06T00:47:20.684Z,99.90
2023-03-06T00:49:48.916Z,99.90
2023-03-06T00:52:17.172Z,99.90
2023-03-06T00:54:45.477Z,99.90
2023-03-06T00:57:13.686Z,99.90
2023-03-06T00:59:43.545Z,99.90
2023-03-06T01:02:11.910Z,99.90
2023-03-06T01:04:40.170Z,99.90
2023-03-06T01:07:08.507Z,99.90
2023-03-06T01:09:36.739Z,99.90
2023-03-06T01:12:05.224Z,99.90
2023-03-06T01:14:33.459Z,99.90
2023-03-06T01:17:03.102Z,99.90
2023-03-06T01:19:31.342Z,99.90
2023-03-06T01:21:59.613Z,99.90
2023-03-06T01:24:28.605Z,99.90
2023-03-06T01:26:56.875Z,99.90
2023-03-06T01:29:26.518Z,99.90
2023-03-06T01:31:54.840Z,99.90
2023-03-06T01:34:24.513Z,99.90
2023-03-06T01:36:52.783Z,99.90
2023-03-06T01:39:21.044Z,99.90
2023-03-06T01:41:49.298Z,99.90
2023-03-06T01:44:17.585Z,99.90
2023-03-06T01:46:45.975Z,99.90
2023-03-06T01:49:18.196Z,99.90
2023-03-06T01:51:50.586Z,99.90
2023-03-06T01:54:21.290Z,99.90
2023-03-06T01:56:50.466Z,99.90
2023-03-06T01:59:18.640Z,99.90
2023-03-06T02:01:46.945Z,99.90
2023-03-06T02:04:15.195Z,99.90
2023-03-06T02:06:44.311Z,99.90
2023-03-06T02:09:14.151Z,99.90
2023-03-06T02:11:44.279Z,99.90
2023-03-06T02:14:13.477Z,99.90
2023-03-06T02:16:41.790Z,99.90
2023-03-06T02:19:16.426Z,99.90
2023-03-06T02:21:44.664Z,99.90
2023-03-06T02:24:20.061Z,99.90
2023-03-06T02:26:49.675Z,99.90
2023-03-06T02:29:21.530Z,99.90
2023-03-06T02:31:49.902Z,99.90
2023-03-06T02:34:51.130Z,99.90
2023-03-06T02:37:19.365Z,99.90
2023-03-06T02:39:49.414Z,99.90
2023-03-06T02:42:37.178Z,99.90
2023-03-06T02:45:06.210Z,99.90
2023-03-06T02:47:34.500Z,99.90
2023-03-06T02:50:02.837Z,1.00
2023-03-06T02:52:31.241Z,99.90
2023-03-06T02:54:59.489Z,99.90
2023-03-06T02:57:29.119Z,99.90
2023-03-06T02:59:57.350Z,99.90
2023-03-06T03:02:25.653Z,99.90
2023-03-06T03:04:53.897Z,99.90
2023-03-06T03:07:22.137Z,99.90
2023-03-06T03:09:50.374Z,99.90
2023-03-06T03:12:18.603Z,99.90
2023-03-06T03:14:48.249Z,99.90
2023-03-06T03:17:16.549Z,99.90
2023-03-06T03:19:44.795Z,99.90
2023-03-06T03:22:13.027Z,99.90
2023-03-06T03:24:42.214Z,99.90
2023-03-06T03:27:10.486Z,99.90
2023-03-06T03:29:38.748Z,99.90
2023-03-06T03:32:09.030Z,99.90
2023-03-06T03:34:37.308Z,99.90
2023-03-06T03:37:05.602Z,99.90
2023-03-06T03:39:33.905Z,99.90
2023-03-06T03:42:02.204Z,99.90
2023-03-06T03:44:30.476Z,99.90
2023-03-06T03:46:58.680Z,99.90
2023-03-06T03:49:28.438Z,99.90
2023-03-06T03:51:56.663Z,99.90
2023-03-06T03:54:24.912Z,99.90
2023-03-06T03:56:53.149Z,99.90
2023-03-06T03:59:21.373Z,99.90
2023-03-06T04:01:49.759Z,99.90
2023-03-06T04:04:18.006Z,99.90
2023-03-06T04:06:47.609Z,99.90
2023-03-06T04:09:15.844Z,99.90
2023-03-06T04:11:44.062Z,99.90
2023-03-06T04:14:12.326Z,99.90
2023-03-06T04:16:40.566Z,99.90
2023-03-06T04:19:08.797Z,99.90
2023-03-06T04:21:37.029Z,99.90
2023-03-06T04:24:07.849Z,99.90
2023-03-06T04:26:37.021Z,99.90
2023-03-06T04:29:05.352Z,99.90
2023-03-06T04:31:33.738Z,99.90
2023-03-06T04:34:02.037Z,99.90
2023-03-06T04:36:31.008Z,99.90
2023-03-06T04:38:59.489Z,99.90
2023-03-06T04:41:29.232Z,99.90
2023-03-06T04:43:57.640Z,99.90
2023-03-06T04:46:26.024Z,99.90
2023-03-06T04:48:54.419Z,99.90
2023-03-06T04:51:22.650Z,99.90
2023-03-06T04:53:50.900Z,99.90
2023-03-06T04:56:19.155Z,99.90
2023-03-06T04:58:48.783Z,99.90
2023-03-06T05:01:17.066Z,99.90
2023-03-06T05:03:45.402Z,99.90
2023-03-06T05:06:13.617Z,99.90
2023-03-06T05:08:41.835Z,99.90
2023-03-06T05:11:10.092Z,99.90
2023-03-06T05:13:38.312Z,99.90
2023-03-06T05:16:09.269Z,99.90
2023-03-06T05:18:37.603Z,99.90
2023-03-06T05:21:06.054Z,99.90
2023-03-06T05:23:36.309Z,99.90
2023-03-06T05:26:07.961Z,99.90
2023-03-06T05:28:36.207Z,99.90
2023-03-06T05:31:04.471Z,99.90
2023-03-06T05:33:34.524Z,99.90
2023-03-06T05:36:02.814Z,99.90
2023-03-06T05:38:31.047Z,99.90
2023-03-06T05:40:59.292Z,99.90
2023-03-06T05:43:27.509Z,99.90
2023-03-06T05:46:02.450Z,99.90
2023-03-06T05:48:30.896Z,99.90
2023-03-06T05:51:00.840Z,99.90
2023-03-06T05:53:29.436Z,99.90
2023-03-06T05:55:58.425Z,99.90
2023-03-06T05:58:26.773Z,99.90
2023-03-06T06:00:55.341Z,99.90
2023-03-06T06:03:23.698Z,99.90
2023-03-06T06:05:52.351Z,99.90
2023-03-06T06:08:22.087Z,99.90
2023-03-06T06:10:53.183Z,99.90
2023-03-06T06:13:21.672Z,92.60
2023-03-06T06:15:49.982Z,49.00
2023-03-06T06:18:18.318Z,35.80
2023-03-06T06:20:46.524Z,1.00
2023-03-06T06:23:14.747Z,1.00
2023-03-06T06:25:44.383Z,1.00
2023-03-06T06:28:13.317Z,1.00
2023-03-06T06:30:41.633Z,1.00
2023-03-06T06:33:09.911Z,1.00
2023-03-06T06:35:38.305Z,1.00
2023-03-06T06:38:06.550Z,1.00
2023-03-06T06:40:34.765Z,1.00
2023-03-06T06:43:04.405Z,1.00
2023-03-06T06:45:32.633Z,1.00
2023-03-06T06:48:01.187Z,1.00
2023-03-06T06:50:29.543Z,1.00
2023-03-06T06:52:57.760Z,1.00
2023-03-06T06:55:26.048Z,1.00
2023-03-06T06:57:54.269Z,1.00
2023-03-06T07:00:25.103Z,1.00
2023-03-06T07:02:53.325Z,1.00
2023-03-06T07:05:22.176Z,1.00
2023-03-06T07:07:51.412Z,1.00
2023-03-06T07:10:21.046Z,1.00
2023-03-06T07:12:49.531Z,1.00
2023-03-06T07:15:17.873Z,1.00
2023-03-06T07:17:49.945Z,99.90
2023-03-06T07:20:19.279Z,99.90
2023-03-06T07:22:51.414Z,99.90
2023-03-06T07:25:20.783Z,99.90
2023-03-06T07:27:53.594Z,99.90
2023-03-06T07:30:22.433Z,99.90
2023-03-06T07:32:54.006Z,99.90
2023-03-06T07:35:22.574Z,99.90
2023-03-06T07:37:51.267Z,99.90
2023-03-06T07:40:19.840Z,99.90
2023-03-06T07:42:48.174Z,99.90
2023-03-06T07:45:16.492Z,99.90
2023-03-06T07:47:44.747Z,99.90
2023-03-06T07:50:14.674Z,99.90
2023-03-06T07:52:42.940Z,99.90
2023-03-06T07:55:12.335Z,99.90
2023-03-06T07:57:40.633Z,99.90
2023-03-06T08:00:11.373Z,99.90
2023-03-06T08:02:39.667Z,99.90
2023-03-06T08:05:08.870Z,99.90
2023-03-06T08:07:38.552Z,99.90
2023-03-06T08:10:07.497Z,99.90
2023-03-06T08:12:35.804Z,99.90
2023-03-06T08:15:04.156Z,99.90
2023-03-06T08:17:32.442Z,99.90
2023-03-06T08:20:00.848Z,99.90
2023-03-06T08:22:29.168Z,99.90
2023-03-06T08:24:59.010Z,99.90
2023-03-06T08:27:27.260Z,99.90
2023-03-06T08:29:55.537Z,99.90
2023-03-06T08:32:23.942Z,99.90
2023-03-06T08:34:52.197Z,99.90
2023-03-06T08:37:20.459Z,99.90
2023-03-06T08:39:48.745Z,99.90
2023-03-06T08:42:18.491Z,99.90
2023-03-06T08:44:47.039Z,99.90
2023-03-06T08:47:15.322Z,99.90
2023-03-06T08:49:43.581Z,99.90
2023-03-06T08:52:12.243Z,99.90
2023-03-06T08:54:40.876Z,99.90
2023-03-06T08:57:09.297Z,99.90
2023-03-06T08:59:38.961Z,99.90
2023-03-06T09:02:07.814Z,99.90
2023-03-06T09:04:36.516Z,99.90
2023-03-06T09:07:04.755Z,99.90
2023-03-06T09:09:33.008Z,99.90
2023-03-06T09:12:01.325Z,99.90
2023-03-06T09:14:29.608Z,99.90
2023-03-06T09:16:59.288Z,99.90
2023-03-06T09:19:27.732Z,99.90
2023-03-06T09:21:58.023Z,99.90
2023-03-06T09:24:26.274Z,99.90
2023-03-06T09:26:54.499Z,99.90
2023-03-06T09:29:22.742Z,99.90
2023-03-06T09:31:50.980Z,99.90
2023-03-06T09:34:20.613Z,99.90
2023-03-06T09:36:56.431Z,99.90
2023-03-06T09:39:25.641Z,99.90
2023-03-06T09:41:53.896Z,99.90
2023-03-06T09:44:23.658Z,99.90
2023-03-06T09:47:03.726Z,99.90
2023-03-06T09:49:40.221Z,99.90
2023-03-06T09:52:17.360Z,99.90
2023-03-06T09:54:47.304Z,99.90
2023-03-06T09:57:20.177Z,99.90
2023-03-06T09:59:49.899Z,99.90
2023-03-06T10:02:21.430Z,99.90
2023-03-06T10:04:52.943Z,99.90
2023-03-06T10:07:22.825Z,99.90
2023-03-06T10:09:53.545Z,99.90
2023-03-06T10:12:26.034Z,99.90
2023-03-06T10:15:12.764Z,99.90
2023-03-06T10:17:41.588Z,99.90
2023-03-06T10:20:25.154Z,99.90
2023-03-06T10:23:05.170Z,99.90
2023-03-06T10:25:34.280Z,99.90
2023-03-06T10:28:04.458Z,99.90
2023-03-06T10:30:41.534Z,99.90
2023-03-06T10:33:10.898Z,99.90
2023-03-06T10:35:47.454Z,99.90
2023-03-06T10:38:37.554Z,99.90
2023-03-06T10:41:08.631Z,99.90
2023-03-06T10:43:37.030Z,99.90
2023-03-06T10:46:05.666Z,99.90
2023-03-06T10:48:36.210Z,99.90
2023-03-06T10:51:19.593Z,99.90
2023-03-06T10:53:55.146Z,99.90
2023-03-06T10:56:30.815Z,99.90
2023-03-06T10:59:09.797Z,99.90
2023-03-06T11:01:38.033Z,99.90
2023-03-06T11:04:23.500Z,99.90
2023-03-06T11:07:09.101Z,99.90
2023-03-06T11:09:37.430Z,99.90
2023-03-06T11:12:23.636Z,99.90
2023-03-06T11:15:21.169Z,99.90
2023-03-06T11:17:54.314Z,99.90
2023-03-06T11:20:23.777Z,99.90
2023-03-06T11:22:56.171Z,99.90
2023-03-06T11:25:26.901Z,99.90
2023-03-06T11:27:57.950Z,99.90
2023-03-06T11:30:27.672Z,99.90
2023-03-06T11:32:57.945Z,99.90
2023-03-06T11:35:27.557Z,99.90
2023-03-06T11:37:58.524Z,99.90
2023-03-06T11:40:32.092Z,99.90
2023-03-06T11:43:03.860Z,99.90
2023-03-06T11:45:34.884Z,99.90
2023-03-06T11:48:20.527Z,99.90
2023-03-06T11:50:50.328Z,99.90
2023-03-06T11:53:20.523Z,99.90
2023-03-06T11:55:53.044Z,99.90
2023-03-06T11:58:43.422Z,99.90
2023-03-06T12:01:14.334Z,99.90
2023-03-06T12:03:56.916Z,99.90
2023-03-06T12:06:31.112Z,99.90
2023-03-06T12:09:05.959Z,99.90
2023-03-06T12:11:36.768Z,99.90
2023-03-06T12:14:12.587Z,99.90
2023-03-06T12:16:52.721Z,99.90
2023-03-06T12:19:28.884Z,99.90
2023-03-06T12:22:03.891Z,99.90
2023-03-06T12:24:44.792Z,99.90
2023-03-06T12:27:17.610Z,99.90
2023-03-06T12:30:00.572Z,99.90
2023-03-06T12:32:38.399Z,99.90
2023-03-06T12:35:37.047Z,99.90
2023-03-06T12:38:14.834Z,99.90
2023-03-06T12:40:53.147Z,99.90
2023-03-06T12:43:47.272Z,99.90
2023-03-06T12:46:16.559Z,99.90
2023-03-06T12:48:46.717Z,99.40
2023-03-06T12:51:17.071Z,98.80
2023-03-06T12:53:45.347Z,98.90
2023-03-06T12:56:15.551Z,97.80
2023-03-06T12:58:53.449Z,98.20
2023-03-06T13:01:44.627Z,97.10
2023-03-06T13:04:29.396Z,96.60
2023-03-06T13:07:04.905Z,95.80
2023-03-06T13:09:34.568Z,95.90
2023-03-06T13:12:17.104Z,95.60
2023-03-06T13:15:29.282Z,95.30
2023-03-06T13:17:57.611Z,99.90
2023-03-06T13:20:35.543Z,94.20
2023-03-06T13:23:43.240Z,93.60
2023-03-06T13:26:12.014Z,93.10
2023-03-06T13:28:45.037Z,92.70
2023-03-06T13:31:26.339Z,92.50
2023-03-06T13:33:57.866Z,91.50
2023-03-06T13:36:30.379Z,91.00
2023-03-06T13:39:00.499Z,90.60
2023-03-06T13:41:45.181Z,89.90
2023-03-06T13:44:50.998Z,90.10
2023-03-06T13:48:05.844Z,89.30
2023-03-06T13:50:38.763Z,90.30
2023-03-06T13:53:46.344Z,86.10
2023-03-06T13:56:45.382Z,84.70
2023-03-06T13:59:42.693Z,86.90
2023-03-06T14:02:22.104Z,82.90
2023-03-06T14:04:57.636Z,82.50
2023-03-06T14:07:27.274Z,82.70
2023-03-06T14:10:12.242Z,81.10
2023-03-06T14:12:42.169Z,82.30
2023-03-06T14:15:17.006Z,78.90
2023-03-06T14:17:53.786Z,80.10
2023-03-06T14:20:23.444Z,79.90
2023-03-06T14:22:51.676Z,78.90
2023-03-06T14:25:22.162Z,76.50
2023-03-06T14:27:51.553Z,74.60
2023-03-06T14:30:23.142Z,72.20
2023-03-06T14:32:54.463Z,71.30
2023-03-06T14:35:34.518Z,74.00
2023-03-06T14:38:04.589Z,79.60
2023-03-06T14:40:34.456Z,89.50
2023-03-06T14:43:21.904Z,95.80
2023-03-06T14:45:51.506Z,99.90
2023-03-06T14:48:19.863Z,99.90
2023-03-06T14:50:53.399Z,99.90
2023-03-06T14:53:26.814Z,99.90
2023-03-06T14:55:58.104Z,99.90
2023-03-06T14:58:29.534Z,99.90
2023-03-06T15:00:59.026Z,99.90
2023-03-06T15:03:30.138Z,99.90
2023-03-06T15:06:00.421Z,99.90
2023-03-06T15:08:29.874Z,99.90
2023-03-06T15:10:59.301Z,99.90
2023-03-06T15:13:29.142Z,99.90
2023-03-06T15:15:59.131Z,99.90
2023-03-06T15:18:29.479Z,99.90
2023-03-06T15:21:08.389Z,99.90
2023-03-06T15:23:37.878Z,99.90
2023-03-06T15:26:19.694Z,99.90
2023-03-06T15:28:50.327Z,99.90
2023-03-06T15:31:22.903Z,99.90
2023-03-06T15:34:05.395Z,99.90
2023-03-06T15:36:35.246Z,99.90
2023-03-06T15:39:03.509Z,99.90
2023-03-06T15:41:33.741Z,99.90
2023-03-06T15:44:02.720Z,99.90
2023-03-06T15:46:30.972Z,99.90
2023-03-06T15:49:03.234Z,99.90
2023-03-06T15:51:31.736Z,99.90
2023-03-06T15:54:12.021Z,99.90
2023-03-06T15:56:42.133Z,99.90
2023-03-06T15:59:12.716Z,99.90
2023-03-06T16:01:42.994Z,99.90
2023-03-06T16:04:11.259Z,99.90
2023-03-06T16:06:39.542Z,99.90
2023-03-06T16:09:09.546Z,99.90
2023-03-06T16:11:43.805Z,99.90
2023-03-06T16:14:23.693Z,99.90
2023-03-06T16:16:52.165Z,99.90
2023-03-06T16:19:26.327Z,99.90
2023-03-06T16:21:55.621Z,99.90
2023-03-06T16:24:28.257Z,99.90
2023-03-06T16:26:56.545Z,99.90
2023-03-06T16:29:26.283Z,99.90
2023-03-06T16:31:55.184Z,99.90
2023-03-06T16:34:23.448Z,99.90
2023-03-06T16:36:51.741Z,99.90
2023-03-06T16:39:20.632Z,99.90
2023-03-06T16:41:50.415Z,99.90
2023-03-06T16:44:18.671Z,99.90
2023-03-06T16:46:47.741Z,99.90
2023-03-06T16:49:17.953Z,99.90
2023-03-06T16:51:46.344Z,99.90
2023-03-06T16:54:14.761Z,99.90
2023-03-06T16:56:43.035Z,99.90
2023-03-06T16:59:12.852Z,99.90
2023-03-06T17:01:42.689Z,99.90
2023-03-06T17:04:11.099Z,99.90
2023-03-06T17:06:39.386Z,99.90
2023-03-06T17:09:07.688Z,99.90
2023-03-06T17:11:38.535Z,99.90
2023-03-06T17:14:07.317Z,99.90
2023-03-06T17:16:40.372Z,99.90
2023-03-06T17:19:08.851Z,99.90
2023-03-06T17:21:38.580Z,99.90
2023-03-06T17:24:07.506Z,99.90
2023-03-06T17:26:36.590Z,99.90
2023-03-06T17:29:06.962Z,99.90
2023-03-06T17:31:36.875Z,99.90
2023-03-06T17:34:05.228Z,99.90
2023-03-06T17:36:33.561Z,99.90
2023-03-06T17:39:02.944Z,99.90
2023-03-06T17:41:32.917Z,1.00
2023-03-06T17:44:01.953Z,99.90
2023-03-06T17:46:31.899Z,1.00
2023-03-06T17:49:01.599Z,1.00
2023-03-06T17:51:29.881Z,1.00
2023-03-06T17:53:58.116Z,1.00
2023-03-06T17:56:26.380Z,1.00
2023-03-06T17:58:55.416Z,1.00
2023-03-06T18:01:27.434Z,1.00
2023-03-06T18:03:55.814Z,1.00
2023-03-06T18:06:27.732Z,1.00
2023-03-06T18:08:56.012Z,1.00
2023-03-06T18:11:24.271Z,1.00
2023-03-06T18:13:52.533Z,1.00
2023-03-06T18:16:22.969Z,1.00
2023-03-06T18:18:52.684Z,1.00
2023-03-06T18:21:24.432Z,1.00
2023-03-06T18:23:52.705Z,1.00
2023-03-06T18:26:21.707Z,1.00
2023-03-06T18:28:50.656Z,1.00
2023-03-06T18:31:19.999Z,1.00
2023-03-06T18:33:49.119Z,1.00
2023-03-06T18:36:17.451Z,8.10
2023-03-06T18:38:48.118Z,5.10
2023-03-06T18:41:16.373Z,27.10
2023-03-06T18:43:44.749Z,43.60
2023-03-06T18:46:13.161Z,57.40
2023-03-06T18:48:41.486Z,99.90
2023-03-06T18:51:11.026Z,99.90
2023-03-06T18:53:40.099Z,99.90
2023-03-06T18:56:10.713Z,99.90
2023-03-06T18:58:38.978Z,96.10
2023-03-06T19:01:08.012Z,99.90
2023-03-06T19:03:36.368Z,99.90
2023-03-06T19:06:06.040Z,99.90
2023-03-06T19:08:34.431Z,99.90
2023-03-06T19:11:03.315Z,99.90
2023-03-06T19:13:33.086Z,99.90
2023-03-06T19:16:01.387Z,79.00
2023-03-06T19:18:30.129Z,94.50
2023-03-06T19:21:08.572Z,99.90
2023-03-06T19:23:36.821Z,48.00
2023-03-06T19:26:05.307Z,19.90
2023-03-06T19:28:35.125Z,25.60
2023-03-06T19:31:09.659Z,1.00
2023-03-06T19:33:38.677Z,1.00
2023-03-06T19:36:07.776Z,1.00
2023-03-06T19:38:36.195Z,1.00
2023-03-06T19:41:04.781Z,1.00
2023-03-06T19:43:34.521Z,1.00
2023-03-06T19:46:03.817Z,1.00
2023-03-06T19:48:32.308Z,1.00
2023-03-06T19:51:05.127Z,1.00
2023-03-06T19:53:33.894Z,1.00
2023-03-06T19:56:06.597Z,1.00
2023-03-06T19:58:36.935Z,1.00
2023-03-06T20:01:08.832Z,99.90
2023-03-06T20:03:37.320Z,99.90
2023-03-06T20:06:09.236Z,99.90
2023-03-06T20:08:37.706Z,99.90
2023-03-06T20:11:06.285Z,99.90
2023-03-06T20:13:38.162Z,99.90
2023-03-06T20:16:08.701Z,99.90
2023-03-06T20:18:37.058Z,99.90
2023-03-06T20:21:05.637Z,99.90
2023-03-06T20:23:33.968Z,99.90
2023-03-06T20:26:03.885Z,99.90
2023-03-06T20:28:32.192Z,99.90
2023-03-06T20:31:07.530Z,99.90
2023-03-06T20:33:35.920Z,99.90
2023-03-06T20:36:04.411Z,99.90
2023-03-06T20:38:33.949Z,99.90
2023-03-06T20:41:02.188Z,99.90
2023-03-06T20:43:30.441Z,99.90
2023-03-06T20:45:59.504Z,99.90
2023-03-06T20:48:29.590Z,99.90
2023-03-06T20:51:02.100Z,99.90
2023-03-06T20:53:30.366Z,99.90
2023-03-06T20:55:58.913Z,99.90
2023-03-06T20:58:30.141Z,99.90
2023-03-06T21:00:59.893Z,99.90
2023-03-06T21:03:30.501Z,99.90
2023-03-06T21:05:58.776Z,99.90
2023-03-06T21:08:27.004Z,99.90
2023-03-06T21:10:55.340Z,99.90
2023-03-06T21:13:23.656Z,99.90
2023-03-06T21:15:51.975Z,99.90
2023-03-06T21:18:20.349Z,99.90
2023-03-06T21:20:50.115Z,99.90
2023-03-06T21:23:18.416Z,99.90
2023-03-06T21:25:49.993Z,99.90
2023-03-06T21:28:18.401Z,99.90
2023-03-06T21:30:46.913Z,99.90
2023-03-06T21:33:16.155Z,99.90
2023-03-06T21:35:44.817Z,1.00
2023-03-06T21:38:14.850Z,99.90
2023-03-06T21:40:45.486Z,99.90
2023-03-06T21:43:15.956Z,1.00
2023-03-06T21:45:45.180Z,1.00
2023-03-06T21:48:13.470Z,99.90
2023-03-06T21:50:41.732Z,1.00
2023-03-06T21:53:10.092Z,1.00
2023-03-06T21:55:41.667Z,1.00
2023-03-06T21:58:10.065Z,1.00
2023-03-06T22:00:38.507Z,1.00
2023-03-06T22:03:06.906Z,1.00
2023-03-06T22:05:35.525Z,1.00
2023-03-06T22:08:03.847Z,1.00
2023-03-06T22:10:32.175Z,1.00
2023-03-06T22:13:01.930Z,1.00
2023-03-06T22:15:30.240Z,1.00
2023-03-06T22:17:58.567Z,1.00
2023-03-06T22:20:26.818Z,1.00
2023-03-06T22:22:55.098Z,1.00
2023-03-06T22:25:23.340Z,1.00
2023-03-06T22:27:51.615Z,1.00
2023-03-06T22:30:21.571Z,1.00
2023-03-06T22:32:49.844Z,1.00
2023-03-06T22:35:18.335Z,1.00
2023-03-06T22:37:46.621Z,1.00
2023-03-06T22:40:15.048Z,1.00
2023-03-06T22:42:43.271Z,1.00
2023-03-06T22:45:12.536Z,1.00
2023-03-06T22:47:42.204Z,1.00
2023-03-06T22:50:11.890Z,1.00
2023-03-06T22:52:40.162Z,1.00
2023-03-06T22:55:09.205Z,1.00
2023-03-06T22:57:37.452Z,1.00
2023-03-06T23:00:07.318Z,1.00
2023-03-06T23:02:36.180Z,1.00
2023-03-06T23:05:06.206Z,1.00
2023-03-06T23:07:34.426Z,1.00
2023-03-06T23:10:02.738Z,1.00
2023-03-06T23:12:31.173Z,1.00
2023-03-06T23:14:59.427Z,1.00
2023-03-06T23:17:27.725Z,1.00
2023-03-06T23:19:55.989Z,1.00
2023-03-06T23:22:25.643Z,1.00
2023-03-06T23:24:53.866Z,1.00
2023-03-06T23:27:22.086Z,1.00
2023-03-06T23:29:55.307Z,1.00
2023-03-06T23:32:23.679Z,1.00
2023-03-06T23:34:52.046Z,1.00
2023-03-06T23:37:20.512Z,1.00
2023-03-06T23:39:50.124Z,1.00
2023-03-06T23:42:19.201Z,1.00
2023-03-06T23:44:47.456Z,1.00
2023-03-06T23:47:17.236Z,1.00
2023-03-06T23:49:45.564Z,1.00
2023-03-06T23:52:13.831Z,1.00
2023-03-06T23:54:42.194Z,1.00
2023-03-06T23:57:11.980Z,1.00
2023-03-06T23:59:40.339Z,1.00
